Time;durP1;ratioP1;P1;durP2;ratioP2;P2;SDS_P1;SDS_P2;PMS_P1;PMS_P2;Temp;Humidity;BMP_temperature;BMP_pressure;BME280_temperature;BME280_humidity;BME280_pressure;Samples;Min_cycle;Max_cycle;Signal;HPM_P1;HPM_P2
2021/06/26 12:11:10;;;;;;;0.70;0.70;;;;;;;;;;4515425;31;20218;-70
2021/06/26 12:13:37;;;;;;;0.00;0.00;;;;;;;;;;4583839;30;20432;-70
2021/06/26 12:16:04;;;;;;;0.00;0.00;;;;;;;;;;4640861;31;20266;-72
2021/06/26 12:18:30;;;;;;;0.00;0.00;;;;;;;;;;4640654;31;20251;-71
2021/06/26 12:20:57;;;;;;;0.00;0.00;;;;;;;;;;4639564;30;20480;-71
2021/06/26 12:23:23;;;;;;;0.00;0.00;;;;;;;;;;4657912;30;20215;-71
2021/06/26 12:25:50;;;;;;;0.00;0.00;;;;;;;;;;4657698;30;20310;-71
2021/06/26 12:28:18;;;;;;;0.00;0.00;;;;;;;;;;4657627;30;20227;-70
2021/06/26 12:30:44;;;;;;;0.00;0.00;;;;;;;;;;4657979;30;20226;-71
2021/06/26 12:33:12;;;;;;;0.00;0.00;;;;;;;;;;4652618;30;20294;-71
2021/06/26 12:35:38;;;;;;;0.00;0.00;;;;;;;;;;4650684;30;20376;-70
2021/06/26 12:38:06;;;;;;;0.00;0.00;;;;;;;;;;4657635;30;20222;-70
2021/06/26 12:40:35;;;;;;;0.00;0.00;;;;;;;;;;4657555;30;20245;-71
2021/06/26 12:43:05;;;;;;;0.00;0.00;;;;;;;;;;4657363;30;20225;-70
2021/06/26 12:45:34;;;;;;;0.00;0.00;;;;;;;;;;4665171;30;20229;-71
2021/06/26 12:48:07;;;;;;;0.00;0.00;;;;;;;;;;4661075;30;20363;-69
2021/06/26 12:50:36;;;;;;;0.00;0.00;;;;;;;;;;4657598;30;20203;-70
2021/06/26 12:53:02;;;;;;;0.00;0.00;;;;;;;;;;4659204;30;20223;-71
2021/06/26 12:55:29;;;;;;;0.00;0.00;;;;;;;;;;4666167;30;20356;-70
2021/06/26 12:57:56;;;;;;;0.00;0.00;;;;;;;;;;4666193;30;20215;-71
2021/06/26 13:00:23;;;;;;;0.00;0.00;;;;;;;;;;4660862;30;20301;-71
2021/06/26 13:02:51;;;;;;;0.00;0.00;;;;;;;;;;4660513;30;20219;-71
2021/06/26 13:05:22;;;;;;;0.00;0.00;;;;;;;;;;4660711;30;20294;-71
2021/06/26 13:07:48;;;;;;;0.00;0.00;;;;;;;;;;4660246;30;20281;-71
2021/06/26 13:10:15;;;;;;;0.00;0.00;;;;;;;;;;4681792;30;20229;-71
2021/06/26 13:12:51;;;;;;;0.00;0.00;;;;;;;;;;4745063;29;1187764;-71
2021/06/26 13:15:17;;;;;;;0.00;0.00;;;;;;;;;;4881773;29;20220;-71
2021/06/26 13:17:43;;;;;;;0.03;0.03;;;;;;;;;;4897086;29;20429;-71
2021/06/26 13:20:13;;;;;;;0.00;0.00;;;;;;;;;;4906752;29;20323;-70
2021/06/26 13:22:39;;;;;;;0.00;0.00;;;;;;;;;;4910135;29;20225;-71
2021/06/26 13:25:06;;;;;;;0.00;0.00;;;;;;;;;;4901286;29;20301;-71
2021/06/26 13:27:32;;;;;;;0.00;0.00;;;;;;;;;;4905486;29;20444;-71
2021/06/26 13:29:59;;;;;;;2.88;1.60;;;;;;;;;;4902943;29;20273;-71
2021/06/26 13:32:26;;;;;;;0.00;0.00;;;;;;;;;;4891447;29;20391;-71
2021/06/26 13:34:52;;;;;;;0.00;0.00;;;;;;;;;;4909631;29;20216;-71
2021/06/26 13:37:20;;;;;;;0.00;0.00;;;;;;;;;;4909892;29;20400;-71
2021/06/26 13:39:46;;;;;;;0.00;0.00;;;;;;;;;;4906408;29;20524;-72
2021/06/26 13:42:13;;;;;;;0.00;0.00;;;;;;;;;;4891155;29;20241;-71
2021/06/26 13:44:39;;;;;;;0.00;0.00;;;;;;;;;;4890753;29;20399;-71
2021/06/26 13:47:05;;;;;;;0.00;0.00;;;;;;;;;;4890993;29;20254;-71
2021/06/26 13:49:33;;;;;;;0.00;0.00;;;;;;;;;;4904368;29;20241;-72
2021/06/26 13:52:00;;;;;;;0.00;0.00;;;;;;;;;;4903570;29;20210;-70
2021/06/26 13:54:28;;;;;;;0.00;0.00;;;;;;;;;;4903047;29;20217;-71
2021/06/26 13:56:54;;;;;;;0.00;0.00;;;;;;;;;;4905068;29;20210;-70
2021/06/26 13:59:21;;;;;;;0.00;0.00;;;;;;;;;;4901298;29;20210;-71
2021/06/26 14:01:47;;;;;;;0.28;0.28;;;;;;;;;;4906614;29;20237;-70
2021/06/26 14:04:14;;;;;;;0.00;0.00;;;;;;;;;;4908292;29;20206;-71
2021/06/26 14:06:40;;;;;;;0.00;0.00;;;;;;;;;;4909779;29;20278;-69
2021/06/26 14:09:07;;;;;;;0.00;0.00;;;;;;;;;;4907338;29;20206;-70
2021/06/26 14:11:35;;;;;;;0.00;0.00;;;;;;;;;;4881828;29;20221;-71
2021/06/26 14:14:02;;;;;;;0.00;0.00;;;;;;;;;;4939540;28;20255;-71
2021/06/26 14:16:28;;;;;;;0.00;0.00;;;;;;;;;;4986014;28;20436;-72
2021/06/26 14:18:54;;;;;;;0.00;0.00;;;;;;;;;;4985487;28;20207;-71
2021/06/26 14:21:21;;;;;;;0.00;0.00;;;;;;;;;;4972210;28;20219;-71
2021/06/26 14:23:47;;;;;;;0.00;0.00;;;;;;;;;;4985855;28;20203;-70
2021/06/26 14:26:14;;;;;;;0.00;0.00;;;;;;;;;;4985471;28;20412;-71
2021/06/26 14:28:42;;;;;;;0.00;0.00;;;;;;;;;;4986218;28;20207;-71
2021/06/26 14:31:09;;;;;;;0.00;0.00;;;;;;;;;;4985639;28;20269;-71
2021/06/26 14:33:35;;;;;;;0.00;0.00;;;;;;;;;;4985605;28;20207;-70
2021/06/26 14:36:02;;;;;;;0.00;0.00;;;;;;;;;;4985545;28;20514;-70
2021/06/26 14:38:28;;;;;;;0.00;0.00;;;;;;;;;;4985529;28;20238;-71
2021/06/26 14:40:54;;;;;;;0.00;0.00;;;;;;;;;;4985482;28;20249;-71
2021/06/26 14:43:21;;;;;;;0.00;0.00;;;;;;;;;;4985205;28;20226;-71
2021/06/26 14:45:49;;;;;;;0.00;0.00;;;;;;;;;;4985327;28;20233;-71
2021/06/26 14:48:16;;;;;;;0.00;0.00;;;;;;;;;;4985304;28;20517;-71
2021/06/26 14:50:42;;;;;;;0.00;0.00;;;;;;;;;;4985311;28;20203;-71
2021/06/26 14:53:09;;;;;;;0.00;0.00;;;;;;;;;;4984981;28;20229;-71
2021/06/26 14:55:36;;;;;;;0.00;0.00;;;;;;;;;;4984599;28;20199;-69
2021/06/26 14:58:02;;;;;;;0.00;0.00;;;;;;;;;;4985023;28;20229;-70
2021/06/26 15:00:29;;;;;;;0.05;0.05;;;;;;;;;;4984564;28;20467;-70
2021/06/26 15:02:56;;;;;;;0.10;0.10;;;;;;;;;;4984490;28;20203;-70
2021/06/26 15:05:23;;;;;;;0.00;0.00;;;;;;;;;;4984699;28;20561;-69
2021/06/26 15:07:49;;;;;;;0.00;0.00;;;;;;;;;;4984897;28;20210;-70
2021/06/26 15:10:15;;;;;;;0.00;0.00;;;;;;;;;;4984151;28;20218;-70
2021/06/26 15:12:41;;;;;;;0.00;0.00;;;;;;;;;;4988544;28;20216;-70
2021/06/26 15:15:09;;;;;;;0.00;0.00;;;;;;;;;;4992758;28;20595;-70
2021/06/26 15:17:35;;;;;;;0.00;0.00;;;;;;;;;;5001309;28;20209;-70
2021/06/26 15:20:03;;;;;;;0.00;0.00;;;;;;;;;;5004216;28;20206;-70
2021/06/26 15:22:30;;;;;;;0.00;0.00;;;;;;;;;;5003434;28;20242;-70
2021/06/26 15:24:56;;;;;;;0.00;0.00;;;;;;;;;;5004034;28;20321;-70
2021/06/26 15:27:23;;;;;;;0.00;0.00;;;;;;;;;;5003695;28;20214;-70
2021/06/26 15:29:49;;;;;;;0.00;0.00;;;;;;;;;;4998316;28;20308;-71
2021/06/26 15:32:15;;;;;;;0.52;0.52;;;;;;;;;;5003480;28;20198;-72
2021/06/26 15:34:42;;;;;;;0.00;0.00;;;;;;;;;;5003262;28;20278;-66
2021/06/26 15:37:15;;;;;;;0.00;0.00;;;;;;;;;;4999717;28;20224;-71
2021/06/26 15:39:41;;;;;;;0.00;0.00;;;;;;;;;;5003135;28;20228;-67
2021/06/26 15:42:08;;;;;;;0.00;0.00;;;;;;;;;;5002537;28;20293;-68
2021/06/26 15:44:34;;;;;;;0.00;0.00;;;;;;;;;;5002398;28;20206;-66
2021/06/26 15:47:00;;;;;;;0.00;0.00;;;;;;;;;;4998968;28;20205;-67
2021/06/26 15:49:27;;;;;;;0.00;0.00;;;;;;;;;;5003217;28;20431;-69
2021/06/26 15:51:53;;;;;;;0.00;0.00;;;;;;;;;;5003740;28;20198;-68
2021/06/26 15:54:21;;;;;;;0.00;0.00;;;;;;;;;;5003232;28;20206;-69
2021/06/26 15:56:47;;;;;;;0.00;0.00;;;;;;;;;;4999901;28;20212;-69
2021/06/26 15:59:14;;;;;;;0.00;0.00;;;;;;;;;;5001549;28;20221;-69
2021/06/26 16:01:40;;;;;;;0.00;0.00;;;;;;;;;;4997000;28;20259;-68
2021/06/26 16:04:07;;;;;;;0.00;0.00;;;;;;;;;;5002380;28;20228;-70
2021/06/26 16:06:33;;;;;;;0.00;0.00;;;;;;;;;;5003192;28;20589;-71
2021/06/26 16:08:59;;;;;;;0.00;0.00;;;;;;;;;;5003099;28;20420;-70
2021/06/26 16:11:27;;;;;;;0.00;0.00;;;;;;;;;;5003427;28;20190;-72
2021/06/26 16:13:53;;;;;;;0.00;0.00;;;;;;;;;;5003371;28;20292;-71
2021/06/26 16:16:20;;;;;;;0.00;0.00;;;;;;;;;;5016614;28;20365;-70
2021/06/26 16:18:46;;;;;;;0.00;0.00;;;;;;;;;;5003267;28;20203;-71
2021/06/26 16:21:13;;;;;;;0.00;0.00;;;;;;;;;;5021667;28;20383;-72
2021/06/26 16:23:39;;;;;;;0.00;0.00;;;;;;;;;;5022453;28;20209;-69
2021/06/26 16:26:05;;;;;;;0.00;0.00;;;;;;;;;;5023898;28;20237;-73
2021/06/26 16:28:33;;;;;;;0.00;0.00;;;;;;;;;;5026941;28;20211;-72
2021/06/26 16:31:00;;;;;;;0.00;0.00;;;;;;;;;;5012859;28;20228;-72
2021/06/26 16:33:26;;;;;;;0.00;0.00;;;;;;;;;;5034126;28;20205;-68
2021/06/26 16:35:54;;;;;;;0.00;0.00;;;;;;;;;;5032473;28;20520;-71
2021/06/26 16:38:27;;;;;;;0.00;0.00;;;;;;;;;;5026021;28;20301;-72
2021/06/26 16:40:53;;;;;;;0.00;0.00;;;;;;;;;;5026388;28;20217;-69
2021/06/26 16:43:20;;;;;;;0.00;0.00;;;;;;;;;;5021547;28;20202;-70
2021/06/26 16:45:48;;;;;;;0.00;0.00;;;;;;;;;;5017525;28;20206;-69
2021/06/26 16:48:15;;;;;;;0.00;0.00;;;;;;;;;;5012893;28;20468;-68
2021/06/26 16:50:41;;;;;;;0.10;0.10;;;;;;;;;;5016929;28;20486;-69
2021/06/26 16:53:08;;;;;;;0.00;0.00;;;;;;;;;;5006232;28;20202;-67
2021/06/26 16:55:34;;;;;;;0.00;0.00;;;;;;;;;;5014223;28;20477;-66
2021/06/26 16:58:01;;;;;;;0.00;0.00;;;;;;;;;;5019397;28;20249;-67
2021/06/26 17:00:28;;;;;;;0.00;0.00;;;;;;;;;;5012714;28;20214;-66
2021/06/26 17:02:55;;;;;;;0.00;0.00;;;;;;;;;;5026294;28;20296;-68
2021/06/26 17:05:22;;;;;;;0.00;0.00;;;;;;;;;;5025917;28;20481;-67
2021/06/26 17:07:49;;;;;;;0.00;0.00;;;;;;;;;;5026124;28;20331;-69
2021/06/26 17:10:16;;;;;;;0.00;0.00;;;;;;;;;;5024720;28;20237;-72
2021/06/26 17:12:44;;;;;;;0.00;0.00;;;;;;;;;;5012174;28;20213;-71
2021/06/26 17:15:11;;;;;;;0.00;0.00;;;;;;;;;;5014827;28;20210;-71
2021/06/26 17:17:37;;;;;;;0.00;0.00;;;;;;;;;;5006497;28;20301;-69
2021/06/26 17:20:05;;;;;;;0.00;0.00;;;;;;;;;;5006556;28;20206;-70
2021/06/26 17:22:32;;;;;;;0.00;0.00;;;;;;;;;;5021930;28;20229;-67
2021/06/26 17:24:58;;;;;;;0.00;0.00;;;;;;;;;;5025747;28;20552;-67
2021/06/26 17:27:24;;;;;;;0.00;0.00;;;;;;;;;;5025864;28;20511;-67
2021/06/26 17:29:51;;;;;;;0.00;0.00;;;;;;;;;;5019443;28;20488;-68
2021/06/26 17:32:17;;;;;;;0.00;0.00;;;;;;;;;;5016592;28;20213;-68
2021/06/26 17:34:43;;;;;;;0.00;0.00;;;;;;;;;;5023729;28;20201;-68
2021/06/26 17:37:13;;;;;;;0.00;0.00;;;;;;;;;;5025437;28;20206;-67
2021/06/26 17:39:39;;;;;;;0.00;0.00;;;;;;;;;;5010975;28;20430;-68
2021/06/26 17:42:06;;;;;;;0.00;0.00;;;;;;;;;;5025236;28;20471;-68
2021/06/26 17:44:33;;;;;;;0.00;0.00;;;;;;;;;;5025265;28;20353;-69
2021/06/26 17:46:59;;;;;;;0.00;0.00;;;;;;;;;;5019212;28;20205;-67
2021/06/26 17:49:26;;;;;;;0.00;0.00;;;;;;;;;;5018375;28;20205;-73
2021/06/26 17:51:52;;;;;;;0.00;0.00;;;;;;;;;;5020521;28;20473;-67
2021/06/26 17:54:20;;;;;;;0.00;0.00;;;;;;;;;;5005678;28;20212;-67
2021/06/26 17:56:46;;;;;;;0.00;0.00;;;;;;;;;;5019311;28;20314;-68
2021/06/26 17:59:13;;;;;;;0.00;0.00;;;;;;;;;;5015318;28;20210;-68
2021/06/26 18:01:39;;;;;;;0.00;0.00;;;;;;;;;;5025049;28;20326;-68
2021/06/26 18:04:06;;;;;;;0.00;0.00;;;;;;;;;;5011171;28;20213;-69
2021/06/26 18:06:33;;;;;;;0.00;0.00;;;;;;;;;;5015126;28;20237;-69
2021/06/26 18:08:59;;;;;;;0.05;0.05;;;;;;;;;;5021192;28;20213;-68
2021/06/26 18:11:27;;;;;;;0.00;0.00;;;;;;;;;;5025418;28;20198;-68
2021/06/26 18:13:53;;;;;;;0.00;0.00;;;;;;;;;;5025173;28;20277;-67
2021/06/26 18:16:20;;;;;;;0.00;0.00;;;;;;;;;;5024734;28;20560;-68
2021/06/26 18:18:47;;;;;;;0.00;0.00;;;;;;;;;;5024909;28;20268;-68
2021/06/26 18:21:13;;;;;;;0.00;0.00;;;;;;;;;;5024705;28;20274;-74
2021/06/26 18:23:40;;;;;;;0.00;0.00;;;;;;;;;;5024870;28;20205;-67
2021/06/26 18:26:06;;;;;;;0.00;0.00;;;;;;;;;;5024500;28;20256;-67
2021/06/26 18:28:35;;;;;;;0.03;0.03;;;;;;;;;;5024590;28;20233;-67
2021/06/26 18:31:01;;;;;;;0.00;0.00;;;;;;;;;;5024714;28;20214;-67
2021/06/26 18:33:28;;;;;;;0.00;0.00;;;;;;;;;;5017368;28;20203;-68
2021/06/26 18:35:54;;;;;;;0.00;0.00;;;;;;;;;;5018382;28;20205;-68
2021/06/26 18:38:21;;;;;;;0.00;0.00;;;;;;;;;;5010471;28;20246;-72
2021/06/26 18:40:47;;;;;;;0.10;0.10;;;;;;;;;;5024455;28;20497;-72
2021/06/26 18:43:14;;;;;;;0.00;0.00;;;;;;;;;;5024642;28;20222;-70
2021/06/26 18:45:43;;;;;;;0.00;0.00;;;;;;;;;;5024228;28;20205;-74
2021/06/26 18:48:09;;;;;;;0.00;0.00;;;;;;;;;;5024112;28;20240;-72
2021/06/26 18:50:36;;;;;;;0.00;0.00;;;;;;;;;;5023284;28;20488;-73
2021/06/26 18:53:03;;;;;;;0.00;0.00;;;;;;;;;;5023080;28;20520;-68
2021/06/26 18:55:29;;;;;;;0.00;0.00;;;;;;;;;;5011598;28;20276;-72
2021/06/26 18:57:56;;;;;;;0.00;0.00;;;;;;;;;;5024294;28;20236;-69
2021/06/26 19:00:22;;;;;;;0.00;0.00;;;;;;;;;;5023762;28;20228;-70
2021/06/26 19:02:50;;;;;;;0.00;0.00;;;;;;;;;;5023825;28;20395;-68
2021/06/26 19:05:17;;;;;;;0.00;0.00;;;;;;;;;;5010056;28;20455;-68
2021/06/26 19:07:44;;;;;;;0.10;0.10;;;;;;;;;;5023199;28;20205;-69
2021/06/26 19:10:13;;;;;;;0.00;0.00;;;;;;;;;;5023288;28;20283;-69
2021/06/26 19:12:39;;;;;;;0.00;0.00;;;;;;;;;;5023271;28;20269;-75
2021/06/26 19:15:06;;;;;;;0.00;0.00;;;;;;;;;;5013603;28;20210;-68
2021/06/26 19:17:33;;;;;;;0.00;0.00;;;;;;;;;;5006054;28;20285;-68
2021/06/26 19:20:02;;;;;;;0.00;0.00;;;;;;;;;;5023711;28;20236;-69
2021/06/26 19:22:28;;;;;;;0.00;0.00;;;;;;;;;;5022253;28;20513;-68
2021/06/26 19:24:55;;;;;;;0.00;0.00;;;;;;;;;;5010919;28;20236;-67
2021/06/26 19:27:21;;;;;;;0.22;0.22;;;;;;;;;;5023075;28;20205;-67
2021/06/26 19:29:48;;;;;;;0.00;0.00;;;;;;;;;;5023070;28;20515;-68
2021/06/26 19:32:15;;;;;;;0.10;0.10;;;;;;;;;;5023164;28;20267;-67
2021/06/26 19:34:42;;;;;;;0.10;0.10;;;;;;;;;;5023201;28;20232;-68
2021/06/26 19:37:10;;;;;;;0.00;0.00;;;;;;;;;;5013466;28;20446;-69
2021/06/26 19:39:36;;;;;;;0.00;0.00;;;;;;;;;;5019442;28;20275;-69
2021/06/26 19:42:03;;;;;;;0.00;0.00;;;;;;;;;;5022636;28;20315;-69
2021/06/26 19:44:30;;;;;;;0.03;0.03;;;;;;;;;;5022697;28;20206;-67
2021/06/26 19:46:56;;;;;;;0.00;0.00;;;;;;;;;;5022808;28;20562;-68
2021/06/26 19:49:23;;;;;;;0.00;0.00;;;;;;;;;;5010722;28;20258;-74
2021/06/26 19:51:50;;;;;;;0.10;0.10;;;;;;;;;;5007674;28;20212;-74
2021/06/26 19:54:18;;;;;;;0.00;0.00;;;;;;;;;;5022698;28;20208;-73
2021/06/26 19:56:46;;;;;;;0.00;0.00;;;;;;;;;;5022734;28;20210;-69
2021/06/26 19:59:12;;;;;;;0.00;0.00;;;;;;;;;;5022954;28;20560;-71
2021/06/26 20:01:39;;;;;;;0.10;0.10;;;;;;;;;;5017609;28;20525;-69
2021/06/26 20:04:05;;;;;;;0.00;0.00;;;;;;;;;;5015379;28;20208;-68
2021/06/26 20:06:32;;;;;;;0.00;0.00;;;;;;;;;;5018170;28;20514;-68
2021/06/26 20:09:09;;;;;;;0.00;0.00;;;;;;;;;;5019858;28;20275;-68
2021/06/26 20:11:39;;;;;;;0.00;0.00;;;;;;;;;;5020839;28;20204;-69
2021/06/26 20:14:05;;;;;;;0.00;0.00;;;;;;;;;;5016787;28;20217;-69
2021/06/26 20:16:32;;;;;;;0.00;0.00;;;;;;;;;;5018540;28;20209;-69
2021/06/26 20:18:58;;;;;;;0.00;0.00;;;;;;;;;;5017416;28;20223;-69
2021/06/26 20:21:25;;;;;;;0.00;0.00;;;;;;;;;;5019915;28;20251;-69
2021/06/26 20:23:51;;;;;;;0.00;0.00;;;;;;;;;;5015289;28;20295;-68
2021/06/26 20:26:18;;;;;;;0.00;0.00;;;;;;;;;;5015522;28;20386;-69
2021/06/26 20:31:52;;;;;;;0.00;0.00;;;;;;;;;;5006910;28;20210;-69
2021/06/26 20:34:19;;;;;;;0.00;0.00;;;;;;;;;;5019725;28;20239;-69
2021/06/26 20:36:45;;;;;;;0.00;0.00;;;;;;;;;;5019336;28;20607;-69
2021/06/26 20:39:12;;;;;;;0.00;0.00;;;;;;;;;;5020850;28;20460;-69
2021/06/26 20:41:38;;;;;;;0.00;0.00;;;;;;;;;;5021198;28;20258;-69
2021/06/26 20:44:08;;;;;;;0.10;0.10;;;;;;;;;;5021767;28;20228;-68
2021/06/26 20:46:35;;;;;;;0.00;0.00;;;;;;;;;;5017676;28;20421;-68
2021/06/26 20:49:04;;;;;;;0.00;0.00;;;;;;;;;;5021044;28;20413;-69
2021/06/26 20:51:31;;;;;;;0.03;0.03;;;;;;;;;;5020167;28;20343;-68
2021/06/26 20:53:58;;;;;;;0.10;0.10;;;;;;;;;;5020878;28;20213;-69
2021/06/26 20:56:25;;;;;;;0.03;0.03;;;;;;;;;;5020540;28;20280;-69
2021/06/26 20:58:52;;;;;;;0.00;0.00;;;;;;;;;;5019326;28;20270;-69
2021/06/26 21:01:19;;;;;;;0.00;0.00;;;;;;;;;;5017080;28;20252;-69
2021/06/26 21:03:46;;;;;;;0.00;0.00;;;;;;;;;;5017866;28;20235;-69
2021/06/26 21:06:15;;;;;;;0.00;0.00;;;;;;;;;;5020921;28;20206;-70
2021/06/26 21:08:42;;;;;;;0.10;0.10;;;;;;;;;;5014414;28;20285;-68
2021/06/26 21:11:14;;;;;;;0.00;0.00;;;;;;;;;;5019073;28;20553;-69
2021/06/26 21:13:41;;;;;;;0.00;0.00;;;;;;;;;;5022714;28;20255;-69
2021/06/26 21:16:08;;;;;;;0.00;0.00;;;;;;;;;;5019301;28;20234;-69
2021/06/26 21:18:34;;;;;;;0.00;0.00;;;;;;;;;;5021301;28;20527;-69
2021/06/26 21:21:01;;;;;;;0.00;0.00;;;;;;;;;;5019686;28;20421;-69
2021/06/26 21:26:56;;;;;;;0.00;0.00;;;;;;;;;;5021236;28;20210;-69
2021/06/26 21:29:35;;;;;;;0.00;0.00;;;;;;;;;;5018986;28;20199;-69
2021/06/26 21:32:02;;;;;;;0.00;0.00;;;;;;;;;;5020177;28;20226;-69
2021/06/26 21:34:47;;;;;;;0.00;0.00;;;;;;;;;;5024289;28;20384;-68
2021/06/26 21:37:19;;;;;;;0.00;0.00;;;;;;;;;;5023751;28;20254;-68
2021/06/26 21:39:46;;;;;;;0.00;0.00;;;;;;;;;;5017419;28;20214;-68
2021/06/26 21:42:17;;;;;;;0.00;0.00;;;;;;;;;;5018270;28;20206;-69
2021/06/26 21:44:45;;;;;;;0.00;0.00;;;;;;;;;;5022741;28;20481;-69
2021/06/26 21:50:17;;;;;;;0.10;0.10;;;;;;;;;;5025116;28;20485;-68
2021/06/26 21:52:46;;;;;;;0.00;0.00;;;;;;;;;;5024225;28;20402;-69
2021/06/26 21:55:16;;;;;;;0.10;0.10;;;;;;;;;;5024842;28;20280;-68
2021/06/26 21:57:53;;;;;;;;;;;;;;;;;;;;;
2021/06/26 22:00:45;;;;;;;0.00;0.00;;;;;;;;;;4969609;28;20284;-69
2021/06/26 22:03:14;;;;;;;0.00;0.00;;;;;;;;;;5019633;28;20386;-68
2021/06/26 22:05:58;;;;;;;0.00;0.00;;;;;;;;;;5025342;28;20229;-68
2021/06/26 22:08:43;;;;;;;0.00;0.00;;;;;;;;;;5024618;28;20215;-68
2021/06/26 22:11:11;;;;;;;0.00;0.00;;;;;;;;;;5024811;28;20226;-69
2021/06/26 22:13:38;;;;;;;0.05;0.05;;;;;;;;;;5024551;28;20330;-68
2021/06/26 22:19:08;;;;;;;0.00;0.00;;;;;;;;;;5024323;28;20204;-69
2021/06/26 22:21:35;;;;;;;0.10;0.10;;;;;;;;;;5024120;28;20268;-69
2021/06/26 22:24:03;;;;;;;0.00;0.00;;;;;;;;;;5024268;28;20252;-69
2021/06/26 22:26:30;;;;;;;0.00;0.00;;;;;;;;;;5018213;28;20218;-69
2021/06/26 22:29:15;;;;;;;0.10;0.10;;;;;;;;;;5005389;28;20209;-69
2021/06/26 22:31:41;;;;;;;0.03;0.03;;;;;;;;;;5005016;28;20208;-68
2021/06/26 22:37:05;;;;;;;0.00;0.00;;;;;;;;;;5004638;28;20264;-68
2021/06/26 22:39:31;;;;;;;0.10;0.10;;;;;;;;;;5020021;28;20226;-68
2021/06/26 22:41:58;;;;;;;0.00;0.00;;;;;;;;;;5024099;28;20204;-68
2021/06/26 22:44:24;;;;;;;0.00;0.00;;;;;;;;;;5023861;28;20235;-68
2021/06/26 22:46:51;;;;;;;0.05;0.05;;;;;;;;;;5023974;28;20259;-68
2021/06/26 22:49:18;;;;;;;0.00;0.00;;;;;;;;;;5023799;28;20212;-68
2021/06/26 22:51:45;;;;;;;0.00;0.00;;;;;;;;;;5023994;28;20203;-68
2021/06/26 22:54:11;;;;;;;0.00;0.00;;;;;;;;;;5024181;28;20202;-70
2021/06/26 22:56:38;;;;;;;0.00;0.00;;;;;;;;;;5021329;28;20214;-68
2021/06/26 22:59:04;;;;;;;0.10;0.10;;;;;;;;;;5012285;28;20202;-67
2021/06/26 23:01:31;;;;;;;0.10;0.10;;;;;;;;;;5023108;28;20250;-69
2021/06/26 23:03:58;;;;;;;0.00;0.00;;;;;;;;;;5020650;28;20228;-68
2021/06/26 23:06:25;;;;;;;0.00;0.00;;;;;;;;;;5023525;28;20208;-69
2021/06/26 23:08:52;;;;;;;0.00;0.00;;;;;;;;;;5009851;28;20215;-68
2021/06/26 23:11:18;;;;;;;0.00;0.00;;;;;;;;;;5016601;28;20258;-68
2021/06/26 23:13:44;;;;;;;0.00;0.00;;;;;;;;;;5004149;28;20208;-69
2021/06/26 23:16:11;;;;;;;0.10;0.10;;;;;;;;;;5004719;28;20210;-70
2021/06/26 23:18:38;;;;;;;0.10;0.10;;;;;;;;;;5015495;28;20233;-69
2021/06/26 23:21:05;;;;;;;0.00;0.00;;;;;;;;;;5023779;28;20204;-68
2021/06/26 23:23:32;;;;;;;0.10;0.10;;;;;;;;;;5023787;28;20238;-69
2021/06/26 23:25:59;;;;;;;0.00;0.00;;;;;;;;;;5009441;28;20497;-69
2021/06/26 23:28:26;;;;;;;0.00;0.00;;;;;;;;;;5023417;28;20349;-69
2021/06/26 23:30:52;;;;;;;0.00;0.00;;;;;;;;;;5023439;28;20258;-69
2021/06/26 23:33:19;;;;;;;0.10;0.10;;;;;;;;;;5016609;28;20199;-69
2021/06/26 23:35:46;;;;;;;0.00;0.00;;;;;;;;;;5003231;28;20216;-68
2021/06/26 23:38:12;;;;;;;0.00;0.00;;;;;;;;;;5017572;28;20407;-69
2021/06/26 23:40:41;;;;;;;0.00;0.00;;;;;;;;;;5013658;28;20222;-68
2021/06/26 23:43:07;;;;;;;0.00;0.00;;;;;;;;;;5020063;28;20275;-69
2021/06/26 23:45:34;;;;;;;0.00;0.00;;;;;;;;;;5012096;28;20260;-69
2021/06/26 23:48:02;;;;;;;0.10;0.10;;;;;;;;;;5022806;28;20258;-69
2021/06/26 23:50:30;;;;;;;0.00;0.00;;;;;;;;;;5023384;28;20215;-68
2021/06/26 23:52:56;;;;;;;0.00;0.00;;;;;;;;;;5022417;28;20212;-68
2021/06/26 23:55:22;;;;;;;0.10;0.10;;;;;;;;;;5003629;28;20206;-68
2021/06/26 23:57:50;;;;;;;0.00;0.00;;;;;;;;;;5014981;28;20208;-69
